Tuscola, TX (79562)

3:55 PM CST on December 03, 2016 (GMT -0600)
APRSWXNET | | Change Station

Elev 1921 ft 32.17 °N, 99.76 °W | Updated 25 minutes ago

Overcast
Overcast
47 °F
Feels Like 45 °F
N
5
Wind Variable Wind from ENE
Gusts 9.0 mph

Today
High -- | Low -- °F
--% Chance of Precip.
Yesterday
High -- | Low -- °F
Precip. -- in
Pressure 29.96 in
Visibility 9.0 miles
Clouds Overcast 500 ft
Windchill 45 °F
Dew Point 45 °F
Humidity 92%
Rainfall in
Snow Depth Not available.
7:24 AM 5:34 PM
Waxing Crescent, 17% visible
SPECI KDYS 032143Z AUTO 02004KT 9SM OVC005 08/08 A2996 RMK AO2 $
Pressure 29.96 in
Visibility 9.0 miles
Clouds Overcast 500 ft
Windchill 45 °F
Dew Point 45 °F
Humidity 92%
Rainfall in
Snow Depth Not available.
7:24 AM 5:34 PM
Waxing Crescent, 17% visible
SPECI KDYS 032143Z AUTO 02004KT 9SM OVC005 08/08 A2996 RMK AO2 $

10-Day Weather Forecast

Almanac

Astronomy

Dec. 03, 2016 Rise Set
Actual Time
Civil Twilight
Nautical Twilight
Astronomical Twilight
Moon
Length of Visible Light
Length of Day
Tomorrow will be .
, % of the Moon is Illuminated

Today's Extremes

State Highs State Lows

Community

WunderPhotos

Upload Photos

1,955,506 photos uploaded!

WunderBlog® & News

Nearby

Air Quality

  Air Quality AQ Index Pollutant
Not available.

Snow Depth

Station Depth Elevation

Earthquake Activity

City Distance Mag. Time & Date
Minimum magnitude displayed is 2.5.

Coastal Water Temperatures

Place Temperature

Stations

Nearby Weather Stations

Station Location Temp. Windchill Dew Point Humidity Wind Precip. Elev Updated Type
                   

Watches & Warnings

There are currently no watches in effect.